sensor_id;sensor_type;location;lat;lon;timestamp;pressure;altitude;pressure_sealevel;temperature;humidity
45403;BME280;47427;51.976;5.326;2024-03-02T00:02:39;99702.50;;;8.70;100.00
45403;BME280;47427;51.976;5.326;2024-03-02T00:05:42;99718.22;;;8.71;100.00
45403;BME280;47427;51.976;5.326;2024-03-02T00:08:43;99734.91;;;8.79;100.00
45403;BME280;47427;51.976;5.326;2024-03-02T00:11:46;99736.66;;;8.80;100.00
45403;BME280;47427;51.976;5.326;2024-03-02T00:14:49;99743.63;;;8.80;100.00
45403;BME280;47427;51.976;5.326;2024-03-02T00:17:53;99759.47;;;8.89;100.00
45403;BME280;47427;51.976;5.326;2024-03-02T00:20:56;99797.78;;;8.87;100.00
45403;BME280;47427;51.976;5.326;2024-03-02T00:23:58;99815.19;;;8.85;100.00
45403;BME280;47427;51.976;5.326;2024-03-02T00:27:03;99823.94;;;8.87;100.00
45403;BME280;47427;51.976;5.326;2024-03-02T00:33:35;99823.59;;;8.67;100.00
45403;BME280;47427;51.976;5.326;2024-03-02T00:36:37;99823.31;;;8.50;100.00
45403;BME280;47427;51.976;5.326;2024-03-02T00:39:39;99832.47;;;8.28;100.00
45403;BME280;47427;51.976;5.326;2024-03-02T00:42:42;99822.03;;;8.28;100.00
45403;BME280;47427;51.976;5.326;2024-03-02T00:45:45;99824.41;;;8.16;100.00
45403;BME280;47427;51.976;5.326;2024-03-02T00:48:57;99814.47;;;7.99;100.00
45403;BME280;47427;51.976;5.326;2024-03-02T00:52:00;99816.84;;;7.87;100.00
45403;BME280;47427;51.976;5.326;2024-03-02T00:55:02;99827.94;;;7.77;100.00
45403;BME280;47427;51.976;5.326;2024-03-02T00:58:08;99821.78;;;7.73;100.00
45403;BME280;47427;51.976;5.326;2024-03-02T01:01:09;99824.94;;;7.58;100.00
45403;BME280;47427;51.976;5.326;2024-03-02T01:04:10;99835.91;;;7.42;100.00
45403;BME280;47427;51.976;5.326;2024-03-02T01:07:13;99820.84;;;7.30;100.00
45403;BME280;47427;51.976;5.326;2024-03-02T01:10:15;99816.31;;;7.22;100.00
45403;BME280;47427;51.976;5.326;2024-03-02T01:13:17;99831.06;;;7.20;100.00
45403;BME280;47427;51.976;5.326;2024-03-02T01:16:20;99837.03;;;7.15;100.00
45403;BME280;47427;51.976;5.326;2024-03-02T01:19:22;99847.63;;;7.22;100.00
45403;BME280;47427;51.976;5.326;2024-03-02T01:22:25;99848.56;;;7.25;100.00
45403;BME280;47427;51.976;5.326;2024-03-02T01:25:27;99842.47;;;7.25;100.00
45403;BME280;47427;51.976;5.326;2024-03-02T01:28:30;99844.03;;;7.18;100.00
45403;BME280;47427;51.976;5.326;2024-03-02T01:31:33;99846.66;;;7.18;100.00
45403;BME280;47427;51.976;5.326;2024-03-02T01:34:54;99849.25;;;7.16;100.00
45403;BME280;47427;51.976;5.326;2024-03-02T01:37:57;99859.56;;;7.12;100.00
45403;BME280;47427;51.976;5.326;2024-03-02T01:40:59;99864.97;;;7.20;100.00
45403;BME280;47427;51.976;5.326;2024-03-02T01:44:02;99871.13;;;7.23;100.00
45403;BME280;47427;51.976;5.326;2024-03-02T01:47:04;99863.03;;;7.12;100.00
45403;BME280;47427;51.976;5.326;2024-03-02T01:50:06;99863.97;;;7.14;100.00
45403;BME280;47427;51.976;5.326;2024-03-02T01:53:09;99869.00;;;7.07;100.00
45403;BME280;47427;51.976;5.326;2024-03-02T01:56:12;99860.38;;;7.11;100.00
45403;BME280;47427;51.976;5.326;2024-03-02T01:59:15;99848.94;;;7.04;100.00
45403;BME280;47427;51.976;5.326;2024-03-02T02:02:16;99847.16;;;7.03;100.00
45403;BME280;47427;51.976;5.326;2024-03-02T02:05:19;99874.97;;;7.03;100.00
45403;BME280;47427;51.976;5.326;2024-03-02T02:08:21;99877.47;;;6.98;100.00
45403;BME280;47427;51.976;5.326;2024-03-02T02:11:24;99873.28;;;7.05;100.00
45403;BME280;47427;51.976;5.326;2024-03-02T02:14:26;99865.41;;;7.02;100.00
45403;BME280;47427;51.976;5.326;2024-03-02T02:17:28;99863.59;;;6.99;100.00
45403;BME280;47427;51.976;5.326;2024-03-02T02:20:31;99862.50;;;6.91;100.00
45403;BME280;47427;51.976;5.326;2024-03-02T02:23:34;99857.19;;;6.86;100.00
45403;BME280;47427;51.976;5.326;2024-03-02T02:26:36;99850.09;;;6.81;100.00
45403;BME280;47427;51.976;5.326;2024-03-02T02:29:39;99857.88;;;6.79;100.00
45403;BME280;47427;51.976;5.326;2024-03-02T02:32:41;99874.25;;;6.73;100.00
45403;BME280;47427;51.976;5.326;2024-03-02T02:35:44;99855.84;;;6.67;100.00
45403;BME280;47427;51.976;5.326;2024-03-02T02:38:47;99859.97;;;6.59;100.00
45403;BME280;47427;51.976;5.326;2024-03-02T02:41:50;99870.53;;;6.65;100.00
45403;BME280;47427;51.976;5.326;2024-03-02T02:44:52;99866.19;;;6.64;100.00
45403;BME280;47427;51.976;5.326;2024-03-02T02:47:55;99853.09;;;6.63;100.00
45403;BME280;47427;51.976;5.326;2024-03-02T02:50:57;99861.66;;;6.57;100.00
45403;BME280;47427;51.976;5.326;2024-03-02T02:53:59;99861.72;;;6.60;100.00
45403;BME280;47427;51.976;5.326;2024-03-02T02:57:01;99852.75;;;6.49;100.00
45403;BME280;47427;51.976;5.326;2024-03-02T03:00:11;99855.97;;;6.40;100.00
45403;BME280;47427;51.976;5.326;2024-03-02T03:03:17;99860.97;;;6.33;100.00
45403;BME280;47427;51.976;5.326;2024-03-02T03:06:18;99859.31;;;6.35;100.00
45403;BME280;47427;51.976;5.326;2024-03-02T03:09:21;99854.06;;;6.33;100.00
45403;BME280;47427;51.976;5.326;2024-03-02T03:12:23;99859.44;;;6.39;100.00
45403;BME280;47427;51.976;5.326;2024-03-02T03:15:26;99856.78;;;6.38;100.00
45403;BME280;47427;51.976;5.326;2024-03-02T03:18:27;99861.91;;;6.33;100.00
45403;BME280;47427;51.976;5.326;2024-03-02T03:21:30;99866.47;;;6.42;100.00
45403;BME280;47427;51.976;5.326;2024-03-02T03:24:32;99861.31;;;6.43;100.00
45403;BME280;47427;51.976;5.326;2024-03-02T03:27:35;99871.81;;;6.48;100.00
45403;BME280;47427;51.976;5.326;2024-03-02T03:30:37;99874.00;;;6.64;100.00
45403;BME280;47427;51.976;5.326;2024-03-02T03:33:40;99882.78;;;6.68;100.00
45403;BME280;47427;51.976;5.326;2024-03-02T03:36:42;99874.06;;;6.67;100.00
45403;BME280;47427;51.976;5.326;2024-03-02T03:39:45;99874.88;;;6.65;100.00
45403;BME280;47427;51.976;5.326;2024-03-02T03:42:47;99879.22;;;6.64;100.00
45403;BME280;47427;51.976;5.326;2024-03-02T03:45:49;99886.28;;;6.68;100.00
45403;BME280;47427;51.976;5.326;2024-03-02T03:48:52;99883.03;;;6.77;100.00
45403;BME280;47427;51.976;5.326;2024-03-02T03:51:54;99879.53;;;6.77;100.00
45403;BME280;47427;51.976;5.326;2024-03-02T03:54:56;99878.63;;;6.75;100.00
45403;BME280;47427;51.976;5.326;2024-03-02T03:57:58;99882.81;;;6.69;100.00
45403;BME280;47427;51.976;5.326;2024-03-02T04:01:01;99881.03;;;6.67;100.00
45403;BME280;47427;51.976;5.326;2024-03-02T04:04:03;99883.78;;;6.73;100.00
45403;BME280;47427;51.976;5.326;2024-03-02T04:07:06;99888.66;;;6.61;100.00
45403;BME280;47427;51.976;5.326;2024-03-02T04:10:09;99900.31;;;6.73;100.00
45403;BME280;47427;51.976;5.326;2024-03-02T04:13:12;99894.09;;;6.68;100.00
45403;BME280;47427;51.976;5.326;2024-03-02T04:16:15;99894.09;;;6.68;100.00
45403;BME280;47427;51.976;5.326;2024-03-02T04:19:17;99895.91;;;6.71;100.00
45403;BME280;47427;51.976;5.326;2024-03-02T04:22:20;99886.91;;;6.60;100.00
45403;BME280;47427;51.976;5.326;2024-03-02T04:25:22;99891.78;;;6.47;100.00
45403;BME280;47427;51.976;5.326;2024-03-02T04:28:25;99890.44;;;6.30;100.00
45403;BME280;47427;51.976;5.326;2024-03-02T04:31:27;99883.41;;;6.26;100.00
45403;BME280;47427;51.976;5.326;2024-03-02T04:34:29;99897.09;;;6.19;100.00
45403;BME280;47427;51.976;5.326;2024-03-02T04:37:34;99890.59;;;6.04;100.00
45403;BME280;47427;51.976;5.326;2024-03-02T04:40:36;99904.69;;;6.13;100.00
45403;BME280;47427;51.976;5.326;2024-03-02T04:43:39;99901.19;;;6.41;100.00
45403;BME280;47427;51.976;5.326;2024-03-02T04:46:40;99892.66;;;6.46;100.00
45403;BME280;47427;51.976;5.326;2024-03-02T04:49:43;99909.34;;;6.55;100.00
45403;BME280;47427;51.976;5.326;2024-03-02T04:52:46;99901.03;;;6.68;100.00
45403;BME280;47427;51.976;5.326;2024-03-02T04:55:48;99910.69;;;6.72;100.00
45403;BME280;47427;51.976;5.326;2024-03-02T04:59:24;99916.84;;;6.74;100.00
45403;BME280;47427;51.976;5.326;2024-03-02T05:02:27;99927.41;;;6.79;100.00
45403;BME280;47427;51.976;5.326;2024-03-02T05:05:30;99926.50;;;6.78;100.00
45403;BME280;47427;51.976;5.326;2024-03-02T05:08:32;99923.19;;;6.84;100.00
45403;BME280;47427;51.976;5.326;2024-03-02T05:11:34;99924.94;;;6.85;100.00
45403;BME280;47427;51.976;5.326;2024-03-02T05:14:39;99938.09;;;6.89;100.00
45403;BME280;47427;51.976;5.326;2024-03-02T05:17:42;99935.38;;;6.85;100.00
45403;BME280;47427;51.976;5.326;2024-03-02T05:20:47;99938.81;;;6.84;100.00
45403;BME280;47427;51.976;5.326;2024-03-02T05:23:49;99939.38;;;6.72;100.00
45403;BME280;47427;51.976;5.326;2024-03-02T05:26:51;99930.47;;;6.64;100.00
45403;BME280;47427;51.976;5.326;2024-03-02T05:29:54;99939.25;;;6.67;100.00
45403;BME280;47427;51.976;5.326;2024-03-02T05:32:56;99930.81;;;6.78;100.00
45403;BME280;47427;51.976;5.326;2024-03-02T05:35:58;99942.53;;;6.93;100.00
45403;BME280;47427;51.976;5.326;2024-03-02T05:39:01;99940.63;;;6.86;100.00
45403;BME280;47427;51.976;5.326;2024-03-02T05:42:04;99931.00;;;6.84;100.00
45403;BME280;47427;51.976;5.326;2024-03-02T05:45:08;99936.97;;;6.80;100.00
45403;BME280;47427;51.976;5.326;2024-03-02T05:48:09;99942.78;;;6.69;100.00
45403;BME280;47427;51.976;5.326;2024-03-02T05:51:12;99949.59;;;6.64;100.00
45403;BME280;47427;51.976;5.326;2024-03-02T05:54:14;99948.88;;;6.70;100.00
45403;BME280;47427;51.976;5.326;2024-03-02T05:57:17;99942.66;;;6.65;100.00
45403;BME280;47427;51.976;5.326;2024-03-02T06:00:30;99956.00;;;6.45;100.00
45403;BME280;47427;51.976;5.326;2024-03-02T06:03:32;99949.75;;;6.39;100.00
45403;BME280;47427;51.976;5.326;2024-03-02T06:06:34;99962.50;;;6.29;100.00
45403;BME280;47427;51.976;5.326;2024-03-02T06:09:56;99969.38;;;6.27;100.00
45403;BME280;47427;51.976;5.326;2024-03-02T06:12:58;99963.44;;;6.32;100.00
45403;BME280;47427;51.976;5.326;2024-03-02T06:16:01;99973.00;;;6.33;100.00
45403;BME280;47427;51.976;5.326;2024-03-02T06:19:04;99975.88;;;6.12;100.00
45403;BME280;47427;51.976;5.326;2024-03-02T06:22:07;99969.69;;;6.08;100.00
45403;BME280;47427;51.976;5.326;2024-03-02T06:25:10;99980.28;;;6.14;100.00
45403;BME280;47427;51.976;5.326;2024-03-02T06:28:13;99982.94;;;6.16;100.00
45403;BME280;47427;51.976;5.326;2024-03-02T06:31:17;99985.63;;;6.19;100.00
45403;BME280;47427;51.976;5.326;2024-03-02T06:34:20;99996.34;;;6.28;100.00
45403;BME280;47427;51.976;5.326;2024-03-02T06:37:22;99983.69;;;6.42;100.00
45403;BME280;47427;51.976;5.326;2024-03-02T06:40:24;99987.47;;;6.53;100.00
45403;BME280;47427;51.976;5.326;2024-03-02T06:43:27;99990.50;;;6.67;100.00
45403;BME280;47427;51.976;5.326;2024-03-02T06:46:29;99985.22;;;6.64;100.00
45403;BME280;47427;51.976;5.326;2024-03-02T06:49:32;99988.75;;;6.67;100.00
45403;BME280;47427;51.976;5.326;2024-03-02T06:52:33;99990.50;;;6.67;100.00
45403;BME280;47427;51.976;5.326;2024-03-02T06:55:36;99990.25;;;6.89;100.00
45403;BME280;47427;51.976;5.326;2024-03-02T06:58:57;99988.09;;;6.75;100.00
45403;BME280;47427;51.976;5.326;2024-03-02T07:01:59;99980.28;;;6.75;100.00
45403;BME280;47427;51.976;5.326;2024-03-02T07:05:02;99986.63;;;6.84;100.00
45403;BME280;47427;51.976;5.326;2024-03-02T07:08:06;99989.47;;;6.93;100.00
45403;BME280;47427;51.976;5.326;2024-03-02T07:11:09;99995.75;;;7.00;100.00
45403;BME280;47427;51.976;5.326;2024-03-02T07:14:10;99993.06;;;6.97;100.00
45403;BME280;47427;51.976;5.326;2024-03-02T07:17:13;99996.16;;;7.15;100.00
45403;BME280;47427;51.976;5.326;2024-03-02T07:20:16;100003.03;;;7.13;100.00
45403;BME280;47427;51.976;5.326;2024-03-02T07:23:19;100015.53;;;7.25;100.00
45403;BME280;47427;51.976;5.326;2024-03-02T07:26:23;100019.84;;;7.58;100.00
45403;BME280;47427;51.976;5.326;2024-03-02T07:29:25;100010.75;;;9.47;100.00
45403;BME280;47427;51.976;5.326;2024-03-02T07:32:27;100017.38;;;11.04;100.00
45403;BME280;47427;51.976;5.326;2024-03-02T07:35:30;100045.38;;;11.92;96.64
45403;BME280;47427;51.976;5.326;2024-03-02T07:38:34;100056.47;;;11.67;89.22
45403;BME280;47427;51.976;5.326;2024-03-02T07:41:37;100024.88;;;10.11;97.84
45403;BME280;47427;51.976;5.326;2024-03-02T07:44:40;100020.19;;;9.37;100.00
45403;BME280;47427;51.976;5.326;2024-03-02T07:48:01;100026.53;;;8.59;100.00
45403;BME280;47427;51.976;5.326;2024-03-02T07:51:02;100034.25;;;8.53;100.00
45403;BME280;47427;51.976;5.326;2024-03-02T07:54:24;100026.81;;;7.94;100.00
45403;BME280;47427;51.976;5.326;2024-03-02T07:57:25;100030.47;;;7.66;100.00
45403;BME280;47427;51.976;5.326;2024-03-02T08:00:28;100033.09;;;7.66;100.00
45403;BME280;47427;51.976;5.326;2024-03-02T08:03:30;100039.63;;;7.48;100.00
45403;BME280;47427;51.976;5.326;2024-03-02T08:06:33;100037.88;;;7.49;100.00
45403;BME280;47427;51.976;5.326;2024-03-02T08:09:36;100042.28;;;7.50;100.00
45403;BME280;47427;51.976;5.326;2024-03-02T08:12:38;100033.22;;;7.70;100.00
45403;BME280;47427;51.976;5.326;2024-03-02T08:15:41;100042.91;;;8.50;100.00
45403;BME280;47427;51.976;5.326;2024-03-02T08:18:42;100038.69;;;9.01;100.00
45403;BME280;47427;51.976;5.326;2024-03-02T08:21:45;100041.16;;;8.92;100.00
45403;BME280;47427;51.976;5.326;2024-03-02T08:24:47;100048.25;;;9.46;100.00
45403;BME280;47427;51.976;5.326;2024-03-02T08:27:50;100062.03;;;11.11;94.07
45403;BME280;47427;51.976;5.326;2024-03-02T08:30:51;100113.63;;;13.22;79.02
45403;BME280;47427;51.976;5.326;2024-03-02T08:33:54;100162.19;;;14.55;67.17
45403;BME280;47427;51.976;5.326;2024-03-02T08:36:57;100180.56;;;15.06;62.19
45403;BME280;47427;51.976;5.326;2024-03-02T08:39:59;100195.38;;;15.53;59.05
45403;BME280;47427;51.976;5.326;2024-03-02T08:43:02;100205.78;;;15.93;56.92
45403;BME280;47427;51.976;5.326;2024-03-02T08:46:05;100207.47;;;16.04;55.66
45403;BME280;47427;51.976;5.326;2024-03-02T08:49:07;100197.69;;;16.14;55.07
45403;BME280;47427;51.976;5.326;2024-03-02T08:52:10;100244.22;;;16.47;53.17
45403;BME280;47427;51.976;5.326;2024-03-02T08:55:13;100243.97;;;16.83;52.07
45403;BME280;47427;51.976;5.326;2024-03-02T08:58:14;100247.69;;;17.48;51.95
45403;BME280;47427;51.976;5.326;2024-03-02T09:01:17;100264.25;;;16.85;50.59
45403;BME280;47427;51.976;5.326;2024-03-02T09:04:20;100269.38;;;17.07;50.23
45403;BME280;47427;51.976;5.326;2024-03-02T09:07:22;100265.22;;;16.74;48.98
45403;BME280;47427;51.976;5.326;2024-03-02T09:10:27;100245.50;;;17.07;49.93
45403;BME280;47427;51.976;5.326;2024-03-02T09:13:29;100258.22;;;17.54;49.22
45403;BME280;47427;51.976;5.326;2024-03-02T09:16:32;100300.72;;;18.26;46.38
45403;BME280;47427;51.976;5.326;2024-03-02T09:19:34;100302.31;;;17.68;45.52
45403;BME280;47427;51.976;5.326;2024-03-02T09:22:36;100289.81;;;17.76;46.34
45403;BME280;47427;51.976;5.326;2024-03-02T09:25:38;100280.91;;;16.98;45.72
45403;BME280;47427;51.976;5.326;2024-03-02T09:28:44;100248.59;;;16.56;48.27
45403;BME280;47427;51.976;5.326;2024-03-02T09:31:46;100237.91;;;16.68;48.40
45403;BME280;47427;51.976;5.326;2024-03-02T09:34:48;100280.41;;;17.50;45.99
45403;BME280;47427;51.976;5.326;2024-03-02T09:37:50;100282.47;;;18.60;45.99
45403;BME280;47427;51.976;5.326;2024-03-02T09:40:53;100336.00;;;18.94;42.70
45403;BME280;47427;51.976;5.326;2024-03-02T09:43:55;100337.63;;;19.03;42.27
45403;BME280;47427;51.976;5.326;2024-03-02T09:46:58;100346.25;;;18.60;41.74
45403;BME280;47427;51.976;5.326;2024-03-02T09:50:01;100349.13;;;18.43;41.72
45403;BME280;47427;51.976;5.326;2024-03-02T09:53:04;100347.97;;;18.64;41.40
45403;BME280;47427;51.976;5.326;2024-03-02T09:56:07;100324.44;;;17.62;42.54
45403;BME280;47427;51.976;5.326;2024-03-02T09:59:08;100340.44;;;18.32;41.59
45403;BME280;47427;51.976;5.326;2024-03-02T10:02:11;100406.25;;;19.85;38.26
45403;BME280;47427;51.976;5.326;2024-03-02T10:05:13;100406.66;;;20.10;38.29
45403;BME280;47427;51.976;5.326;2024-03-02T10:08:25;100420.56;;;20.26;36.88
45403;BME280;47427;51.976;5.326;2024-03-02T10:11:31;100388.75;;;19.20;38.61
45403;BME280;47427;51.976;5.326;2024-03-02T10:14:35;100376.19;;;19.80;38.87
45403;BME280;47427;51.976;5.326;2024-03-02T10:17:37;100402.25;;;19.61;38.22
45403;BME280;47427;51.976;5.326;2024-03-02T10:20:40;100353.19;;;19.26;40.11
45403;BME280;47427;51.976;5.326;2024-03-02T10:23:42;100374.13;;;20.78;38.85
45403;BME280;47427;51.976;5.326;2024-03-02T10:26:43;100470.38;;;22.12;34.27
45403;BME280;47427;51.976;5.326;2024-03-02T10:29:46;100456.47;;;20.92;34.82
45403;BME280;47427;51.976;5.326;2024-03-02T10:32:49;100479.22;;;21.81;33.39
45403;BME280;47427;51.976;5.326;2024-03-02T10:35:52;100441.69;;;20.77;34.32
45403;BME280;47427;51.976;5.326;2024-03-02T10:38:53;100422.00;;;20.84;34.84
45403;BME280;47427;51.976;5.326;2024-03-02T10:41:58;100411.91;;;21.69;34.59
45403;BME280;47427;51.976;5.326;2024-03-02T10:45:00;100429.41;;;21.80;34.08
45403;BME280;47427;51.976;5.326;2024-03-02T10:48:04;100399.63;;;21.94;33.92
45403;BME280;47427;51.976;5.326;2024-03-02T10:51:06;100446.22;;;22.79;32.42
45403;BME280;47427;51.976;5.326;2024-03-02T10:54:09;100442.59;;;22.80;32.47
45403;BME280;47427;51.976;5.326;2024-03-02T10:57:11;100464.88;;;22.81;31.62
45403;BME280;47427;51.976;5.326;2024-03-02T11:00:16;100453.72;;;21.70;31.96
45403;BME280;47427;51.976;5.326;2024-03-02T11:03:17;100449.75;;;22.17;31.82
45403;BME280;47427;51.976;5.326;2024-03-02T11:06:19;100442.25;;;21.99;31.91
45403;BME280;47427;51.976;5.326;2024-03-02T11:09:25;100446.81;;;22.28;32.02
45403;BME280;47427;51.976;5.326;2024-03-02T11:12:53;100452.91;;;22.00;31.56
45403;BME280;47427;51.976;5.326;2024-03-02T11:15:59;100416.06;;;20.71;34.38
45403;BME280;47427;51.976;5.326;2024-03-02T11:19:06;100359.34;;;18.75;36.38
45403;BME280;47427;51.976;5.326;2024-03-02T11:22:09;100312.69;;;18.54;37.94
45403;BME280;47427;51.976;5.326;2024-03-02T11:25:26;100345.19;;;19.27;36.34
45403;BME280;47427;51.976;5.326;2024-03-02T11:28:35;100336.88;;;19.92;35.86
45403;BME280;47427;51.976;5.326;2024-03-02T11:31:57;100358.53;;;19.76;35.07
45403;BME280;47427;51.976;5.326;2024-03-02T11:34:58;100330.38;;;19.11;36.32
45403;BME280;47427;51.976;5.326;2024-03-02T11:38:01;100337.63;;;18.44;36.14
45403;BME280;47427;51.976;5.326;2024-03-02T11:41:08;100322.94;;;18.17;37.41
45403;BME280;47427;51.976;5.326;2024-03-02T11:44:11;100320.72;;;18.50;36.64
45403;BME280;47427;51.976;5.326;2024-03-02T11:47:16;100303.66;;;18.65;37.02
45403;BME280;47427;51.976;5.326;2024-03-02T11:50:39;100319.31;;;19.36;36.45
45403;BME280;47427;51.976;5.326;2024-03-02T11:53:42;100360.75;;;20.80;33.63
45403;BME280;47427;51.976;5.326;2024-03-02T11:56:46;100381.25;;;21.51;32.79
45403;BME280;47427;51.976;5.326;2024-03-02T11:59:49;100407.84;;;22.21;31.75
45403;BME280;47427;51.976;5.326;2024-03-02T12:03:09;100421.75;;;21.99;31.50
45403;BME280;47427;51.976;5.326;2024-03-02T12:06:11;100468.88;;;22.97;29.12
45403;BME280;47427;51.976;5.326;2024-03-02T12:09:15;100422.50;;;22.04;30.13
45403;BME280;47427;51.976;5.326;2024-03-02T12:12:18;100444.84;;;22.02;28.87
45403;BME280;47427;51.976;5.326;2024-03-02T12:15:25;100412.16;;;22.56;30.03
45403;BME280;47427;51.976;5.326;2024-03-02T12:18:28;100405.38;;;23.29;29.71
45403;BME280;47427;51.976;5.326;2024-03-02T12:21:30;100425.34;;;23.73;28.52
45403;BME280;47427;51.976;5.326;2024-03-02T12:24:33;100433.28;;;23.75;28.85
45403;BME280;47427;51.976;5.326;2024-03-02T12:27:35;100438.75;;;24.22;27.40
45403;BME280;47427;51.976;5.326;2024-03-02T12:30:39;100430.00;;;23.93;28.54
45403;BME280;47427;51.976;5.326;2024-03-02T12:33:41;100443.31;;;23.95;28.33
45403;BME280;47427;51.976;5.326;2024-03-02T12:36:45;100395.47;;;22.15;29.77
45403;BME280;47427;51.976;5.326;2024-03-02T12:39:49;100382.00;;;22.21;30.13
45403;BME280;47427;51.976;5.326;2024-03-02T12:42:52;100328.34;;;22.56;31.99
45403;BME280;47427;51.976;5.326;2024-03-02T12:45:53;100351.53;;;22.83;30.40
45403;BME280;47427;51.976;5.326;2024-03-02T12:48:58;100344.47;;;22.54;30.13
45403;BME280;47427;51.976;5.326;2024-03-02T12:52:12;100340.59;;;21.72;31.02
45403;BME280;47427;51.976;5.326;2024-03-02T12:55:15;100320.22;;;22.01;31.23
45403;BME280;47427;51.976;5.326;2024-03-02T12:58:19;100330.31;;;23.57;31.16
45403;BME280;47427;51.976;5.326;2024-03-02T13:01:52;100330.00;;;22.32;30.34
45403;BME280;47427;51.976;5.326;2024-03-02T13:04:53;100309.06;;;22.16;31.53
45403;BME280;47427;51.976;5.326;2024-03-02T13:07:55;100311.50;;;22.82;30.95
45403;BME280;47427;51.976;5.326;2024-03-02T13:10:58;100310.28;;;22.90;31.50
45403;BME280;47427;51.976;5.326;2024-03-02T13:14:00;100290.03;;;21.68;32.65
45403;BME280;47427;51.976;5.326;2024-03-02T13:17:03;100297.56;;;20.83;33.03
45403;BME280;47427;51.976;5.326;2024-03-02T13:20:07;100265.16;;;20.64;33.57
45403;BME280;47427;51.976;5.326;2024-03-02T13:23:12;100228.78;;;19.84;34.59
45403;BME280;47427;51.976;5.326;2024-03-02T13:26:15;100250.84;;;20.29;33.30
45403;BME280;47427;51.976;5.326;2024-03-02T13:29:17;100267.16;;;21.25;32.48
45403;BME280;47427;51.976;5.326;2024-03-02T13:32:20;100260.56;;;22.30;32.46
45403;BME280;47427;51.976;5.326;2024-03-02T13:35:24;100272.13;;;22.85;31.23
45403;BME280;47427;51.976;5.326;2024-03-02T13:38:27;100293.72;;;23.07;31.30
45403;BME280;47427;51.976;5.326;2024-03-02T13:41:30;100288.13;;;21.71;32.65
45403;BME280;47427;51.976;5.326;2024-03-02T13:44:32;100275.19;;;22.46;32.02
45403;BME280;47427;51.976;5.326;2024-03-02T13:47:34;100269.34;;;21.74;32.70
45403;BME280;47427;51.976;5.326;2024-03-02T13:50:36;100167.09;;;18.73;37.74
45403;BME280;47427;51.976;5.326;2024-03-02T13:53:39;100156.56;;;20.35;36.61
45403;BME280;47427;51.976;5.326;2024-03-02T13:56:42;100140.06;;;18.51;38.02
45403;BME280;47427;51.976;5.326;2024-03-02T13:59:44;100095.72;;;17.42;40.39
45403;BME280;47427;51.976;5.326;2024-03-02T14:02:47;100091.50;;;17.90;39.62
45403;BME280;47427;51.976;5.326;2024-03-02T14:05:52;100055.91;;;16.75;41.55
45403;BME280;47427;51.976;5.326;2024-03-02T14:08:55;100014.34;;;16.01;43.97
45403;BME280;47427;51.976;5.326;2024-03-02T14:11:56;100012.63;;;15.96;43.67
45403;BME280;47427;51.976;5.326;2024-03-02T14:14:58;99985.31;;;15.94;44.65
45403;BME280;47427;51.976;5.326;2024-03-02T14:18:01;99999.19;;;16.17;43.76
45403;BME280;47427;51.976;5.326;2024-03-02T14:21:04;99979.78;;;16.18;44.23
45403;BME280;47427;51.976;5.326;2024-03-02T14:24:06;100026.28;;;18.72;40.50
45403;BME280;47427;51.976;5.326;2024-03-02T14:27:11;100074.97;;;19.95;38.11
45403;BME280;47427;51.976;5.326;2024-03-02T14:30:16;100066.78;;;20.39;39.16
45403;BME280;47427;51.976;5.326;2024-03-02T14:33:19;100137.44;;;22.36;34.06
45403;BME280;47427;51.976;5.326;2024-03-02T14:36:21;100134.66;;;21.55;34.95
45403;BME280;47427;51.976;5.326;2024-03-02T14:39:23;100151.31;;;20.68;34.50
45403;BME280;47427;51.976;5.326;2024-03-02T14:42:26;100150.78;;;21.19;34.47
45403;BME280;47427;51.976;5.326;2024-03-02T14:45:33;100139.22;;;20.19;34.98
45403;BME280;47427;51.976;5.326;2024-03-02T14:48:38;100067.97;;;18.22;38.50
45403;BME280;47427;51.976;5.326;2024-03-02T14:51:41;100078.28;;;19.28;37.65
45403;BME280;47427;51.976;5.326;2024-03-02T14:54:44;100120.47;;;20.59;35.19
45403;BME280;47427;51.976;5.326;2024-03-02T14:58:05;100098.94;;;20.98;36.37
45403;BME280;47427;51.976;5.326;2024-03-02T15:01:08;100132.06;;;21.20;34.68
45403;BME280;47427;51.976;5.326;2024-03-02T15:04:11;100118.69;;;20.91;35.75
45403;BME280;47427;51.976;5.326;2024-03-02T15:07:14;100102.25;;;20.75;36.43
45403;BME280;47427;51.976;5.326;2024-03-02T15:10:17;100137.00;;;21.05;34.72
45403;BME280;47427;51.976;5.326;2024-03-02T15:13:18;100116.97;;;20.88;35.29
45403;BME280;47427;51.976;5.326;2024-03-02T15:16:20;100093.63;;;19.16;37.50
45403;BME280;47427;51.976;5.326;2024-03-02T15:19:23;100028.88;;;17.18;40.63
45403;BME280;47427;51.976;5.326;2024-03-02T15:22:26;99990.50;;;17.45;41.86
45403;BME280;47427;51.976;5.326;2024-03-02T15:25:27;99986.56;;;16.42;42.85
45403;BME280;47427;51.976;5.326;2024-03-02T15:28:30;99956.16;;;15.98;44.48
45403;BME280;47427;51.976;5.326;2024-03-02T15:31:32;99930.81;;;15.76;45.30
45403;BME280;47427;51.976;5.326;2024-03-02T15:34:36;99935.25;;;15.74;45.21
45403;BME280;47427;51.976;5.326;2024-03-02T15:37:38;99904.06;;;15.03;47.26
45403;BME280;47427;51.976;5.326;2024-03-02T15:40:40;99905.84;;;15.01;46.60
45403;BME280;47427;51.976;5.326;2024-03-02T15:43:42;99908.50;;;14.98;46.54
45403;BME280;47427;51.976;5.326;2024-03-02T15:46:45;99886.63;;;14.82;47.83
45403;BME280;47427;51.976;5.326;2024-03-02T15:49:48;99861.97;;;14.80;48.48
45403;BME280;47427;51.976;5.326;2024-03-02T15:52:50;99849.88;;;14.39;49.59
45403;BME280;47427;51.976;5.326;2024-03-02T15:55:53;99824.53;;;14.11;50.88
45403;BME280;47427;51.976;5.326;2024-03-02T15:58:55;99803.44;;;14.06;51.96
45403;BME280;47427;51.976;5.326;2024-03-02T16:01:58;99804.25;;;14.17;51.78
45403;BME280;47427;51.976;5.326;2024-03-02T16:04:59;99789.44;;;13.98;52.60
45403;BME280;47427;51.976;5.326;2024-03-02T16:08:02;99773.69;;;13.81;53.79
45403;BME280;47427;51.976;5.326;2024-03-02T16:11:05;99756.19;;;13.63;54.19